createdAt,value
2019-05-19T00:01:23.126Z,96.20
2019-05-19T00:03:52.453Z,96.50
2019-05-19T00:06:22.087Z,96.80
2019-05-19T00:08:52.742Z,97.20
2019-05-19T00:11:22.068Z,97.00
2019-05-19T00:13:53.023Z,97.30
2019-05-19T00:16:22.438Z,97.50
2019-05-19T00:18:52.070Z,97.70
2019-05-19T00:21:21.396Z,98.10
2019-05-19T00:23:50.735Z,98.00
2019-05-19T00:26:20.307Z,98.20
2019-05-19T00:28:49.644Z,98.30
2019-05-19T00:31:19.950Z,98.10
2019-05-19T00:33:49.592Z,98.10
2019-05-19T00:36:19.692Z,97.90
2019-05-19T00:38:58.926Z,98.10
2019-05-19T00:41:28.594Z,98.00
2019-05-19T00:44:00.789Z,98.10
2019-05-19T00:46:42.186Z,98.10
2019-05-19T00:49:17.064Z,97.90
2019-05-19T00:51:46.580Z,97.80
2019-05-19T00:54:15.956Z,97.60
2019-05-19T00:56:45.631Z,97.50
2019-05-19T00:59:15.491Z,97.30
2019-05-19T01:01:46.213Z,97.20
2019-05-19T01:04:15.577Z,97.30
2019-05-19T01:07:36.396Z,97.30
2019-05-19T01:15:38.754Z,97.20
2019-05-19T01:18:20.890Z,97.40
2019-05-19T01:20:55.989Z,97.90
2019-05-19T01:23:34.979Z,97.80
2019-05-19T01:26:19.731Z,98.00
2019-05-19T01:29:06.675Z,98.10
2019-05-19T01:31:47.471Z,98.20
2019-05-19T01:34:23.457Z,98.40
2019-05-19T01:37:03.995Z,98.30
2019-05-19T01:39:40.967Z,98.20
2019-05-19T01:42:32.310Z,98.30
2019-05-19T01:45:05.223Z,98.20
2019-05-19T01:47:47.634Z,98.40
2019-05-19T01:50:22.182Z,98.70
2019-05-19T01:52:52.128Z,98.60
2019-05-19T01:55:25.086Z,98.80
2019-05-19T01:57:57.473Z,98.80
2019-05-19T02:00:40.280Z,98.70
2019-05-19T02:06:20.054Z,98.60
2019-05-19T02:22:20.499Z,98.70
2019-05-19T02:25:06.585Z,98.80
2019-05-19T02:28:23.106Z,98.70
2019-05-19T02:30:28.177Z,98.80
2019-05-19T02:37:09.319Z,98.90
2019-05-19T02:40:02.028Z,99.30
2019-05-19T02:43:05.676Z,99.10
2019-05-19T02:45:59.668Z,99.20
2019-05-19T02:51:54.320Z,99.60
2019-05-19T02:54:28.039Z,99.70
2019-05-19T02:56:58.370Z,99.90
2019-05-19T02:59:29.262Z,99.90
2019-05-19T03:02:03.889Z,99.90
2019-05-19T03:04:35.450Z,99.90
2019-05-19T03:10:24.112Z,99.90
2019-05-19T03:13:06.985Z,99.90
2019-05-19T03:15:45.302Z,99.90
2019-05-19T03:18:18.006Z,99.90
2019-05-19T03:21:08.076Z,99.90
2019-05-19T03:23:23.857Z,99.90
2019-05-19T03:25:53.761Z,99.90
2019-05-19T03:28:24.831Z,99.90
2019-05-19T03:31:18.538Z,99.90
2019-05-19T03:34:04.501Z,99.90
2019-05-19T03:36:54.398Z,99.90
2019-05-19T03:39:18.327Z,99.90
2019-05-19T03:41:50.941Z,99.90
2019-05-19T03:44:20.872Z,99.90
2019-05-19T03:46:50.992Z,99.90
2019-05-19T03:49:20.723Z,99.90
2019-05-19T03:51:50.588Z,99.90
2019-05-19T03:54:20.971Z,99.90
2019-05-19T03:56:50.822Z,99.90
2019-05-19T03:59:20.870Z,99.90
2019-05-19T04:01:50.824Z,99.90
2019-05-19T04:04:24.218Z,99.90
2019-05-19T04:06:54.685Z,99.90
2019-05-19T04:09:26.198Z,99.90
2019-05-19T04:11:56.051Z,99.90
2019-05-19T04:14:32.072Z,99.90
2019-05-19T04:17:18.288Z,99.90
2019-05-19T04:19:53.403Z,99.90
2019-05-19T04:25:25.509Z,99.90
2019-05-19T04:28:14.656Z,99.90
2019-05-19T04:30:56.472Z,99.90
2019-05-19T04:33:39.531Z,99.90
2019-05-19T04:36:16.543Z,99.90
2019-05-19T04:38:46.475Z,99.90
2019-05-19T04:41:20.391Z,99.90
2019-05-19T04:43:55.339Z,99.90
2019-05-19T04:46:24.987Z,99.90
2019-05-19T04:48:58.517Z,99.90
2019-05-19T04:51:28.875Z,99.90
2019-05-19T04:54:00.350Z,99.90
2019-05-19T04:56:30.190Z,99.90
2019-05-19T04:59:00.020Z,99.90
2019-05-19T05:01:29.490Z,99.90
2019-05-19T05:03:59.876Z,99.90
2019-05-19T05:06:29.585Z,99.80
2019-05-19T05:08:59.276Z,99.30
2019-05-19T05:11:28.754Z,99.20
2019-05-19T05:13:58.591Z,98.60
2019-05-19T05:16:28.327Z,98.40
2019-05-19T05:18:58.228Z,97.80
2019-05-19T05:21:27.706Z,97.40
2019-05-19T05:23:57.383Z,97.00
2019-05-19T05:26:26.849Z,96.30
2019-05-19T05:28:56.256Z,96.10
2019-05-19T05:31:25.951Z,96.00
2019-05-19T05:33:56.882Z,96.10
2019-05-19T05:36:27.806Z,96.10
2019-05-19T05:38:57.744Z,96.40
2019-05-19T05:41:27.140Z,96.60
2019-05-19T05:43:56.762Z,96.70
2019-05-19T05:46:26.309Z,96.70
2019-05-19T05:48:55.762Z,96.50
2019-05-19T05:51:27.162Z,96.10
2019-05-19T05:53:57.364Z,95.60
2019-05-19T05:56:27.864Z,95.90
2019-05-19T05:58:58.137Z,96.10
2019-05-19T06:01:33.757Z,96.30
2019-05-19T06:04:09.721Z,96.30
2019-05-19T06:06:41.579Z,96.60
2019-05-19T06:09:17.303Z,96.40
2019-05-19T06:11:54.748Z,96.80
2019-05-19T06:14:32.433Z,96.70
2019-05-19T06:17:02.158Z,96.60
2019-05-19T06:19:31.538Z,96.70
2019-05-19T06:22:06.444Z,96.90
2019-05-19T06:24:36.376Z,97.00
2019-05-19T06:27:08.052Z,96.50
2019-05-19T06:29:48.200Z,96.50
2019-05-19T06:32:22.602Z,96.40
2019-05-19T06:34:52.052Z,96.20
2019-05-19T06:40:11.303Z,95.90
2019-05-19T06:42:40.788Z,95.40
2019-05-19T06:45:10.684Z,95.10
2019-05-19T06:47:40.017Z,94.90
2019-05-19T06:50:10.966Z,94.90
2019-05-19T06:52:40.348Z,94.80
2019-05-19T06:55:10.845Z,94.60
2019-05-19T06:57:41.124Z,93.70
2019-05-19T07:00:12.024Z,93.10
2019-05-19T07:02:41.684Z,93.10
2019-05-19T07:05:11.206Z,92.90
2019-05-19T07:07:41.217Z,93.20
2019-05-19T07:10:10.782Z,92.90
2019-05-19T07:12:40.183Z,93.00
2019-05-19T07:15:10.329Z,92.90
2019-05-19T07:17:39.682Z,92.80
2019-05-19T07:20:09.528Z,92.20
2019-05-19T07:22:39.101Z,92.80
2019-05-19T07:25:08.878Z,92.40
2019-05-19T07:27:38.831Z,92.70
2019-05-19T07:30:09.203Z,92.40
2019-05-19T07:32:39.840Z,93.00
2019-05-19T07:35:09.658Z,92.70
2019-05-19T07:37:39.005Z,92.40
2019-05-19T07:40:09.631Z,92.00
2019-05-19T07:42:39.331Z,92.00
2019-05-19T07:45:10.772Z,91.40
2019-05-19T07:47:40.505Z,91.50
2019-05-19T07:50:09.916Z,91.60
2019-05-19T07:52:39.258Z,91.30
2019-05-19T07:55:09.098Z,90.40
2019-05-19T07:57:38.425Z,90.10
2019-05-19T08:00:09.150Z,89.00
2019-05-19T08:02:38.757Z,88.00
2019-05-19T08:05:08.378Z,85.30
2019-05-19T08:07:38.065Z,85.60
2019-05-19T08:10:07.838Z,82.30
2019-05-19T08:12:37.210Z,82.10
2019-05-19T08:15:08.441Z,80.90
2019-05-19T08:17:38.069Z,78.50
2019-05-19T08:20:07.851Z,79.50
2019-05-19T08:22:37.418Z,78.40
2019-05-19T08:25:08.466Z,78.10
2019-05-19T08:27:38.136Z,76.10
2019-05-19T08:30:09.032Z,75.00
2019-05-19T08:32:38.725Z,75.00
2019-05-19T08:35:08.403Z,74.80
2019-05-19T08:37:38.005Z,73.80
2019-05-19T08:40:08.068Z,72.80
2019-05-19T08:42:37.411Z,71.80
2019-05-19T08:45:08.807Z,71.80
2019-05-19T08:47:38.256Z,72.20
2019-05-19T08:50:07.928Z,69.10
2019-05-19T08:52:37.327Z,70.80
2019-05-19T08:55:07.116Z,70.70
2019-05-19T08:57:36.835Z,71.00
2019-05-19T09:00:07.021Z,69.00
2019-05-19T09:02:36.429Z,69.20
2019-05-19T09:05:07.240Z,67.40
2019-05-19T09:07:36.641Z,68.60
2019-05-19T09:10:08.006Z,67.60
2019-05-19T09:12:38.138Z,68.20
2019-05-19T09:15:08.762Z,67.20
2019-05-19T09:17:38.100Z,65.70
2019-05-19T09:20:07.870Z,66.40
2019-05-19T09:22:37.208Z,63.20
2019-05-19T09:25:08.626Z,61.60
2019-05-19T09:27:38.259Z,63.60
2019-05-19T09:30:14.140Z,62.90
2019-05-19T09:32:43.803Z,62.10
2019-05-19T09:35:13.831Z,61.30
2019-05-19T09:37:43.462Z,61.10
2019-05-19T09:40:13.264Z,61.10
2019-05-19T09:42:42.907Z,60.00
2019-05-19T09:45:12.938Z,58.00
2019-05-19T09:47:43.010Z,55.80
2019-05-19T09:50:14.335Z,57.90
2019-05-19T09:52:43.695Z,56.20
2019-05-19T09:55:16.114Z,57.50
2019-05-19T09:57:45.451Z,58.60
2019-05-19T10:00:15.420Z,59.60
2019-05-19T10:02:45.041Z,60.70
2019-05-19T10:05:14.865Z,60.00
2019-05-19T10:07:44.194Z,57.90
2019-05-19T10:10:16.863Z,55.70
2019-05-19T10:12:46.271Z,56.20
2019-05-19T10:15:16.147Z,55.30
2019-05-19T10:17:45.848Z,55.90
2019-05-19T10:20:15.792Z,56.50
2019-05-19T10:22:45.368Z,56.20
2019-05-19T10:25:23.211Z,55.80
2019-05-19T10:27:46.441Z,57.40
2019-05-19T10:30:16.282Z,58.60
2019-05-19T10:32:45.859Z,57.70
2019-05-19T10:35:15.719Z,56.30
2019-05-19T10:37:45.329Z,56.20
2019-05-19T10:40:15.123Z,55.60
2019-05-19T10:42:44.909Z,56.30
2019-05-19T10:45:14.832Z,55.10
2019-05-19T10:47:44.266Z,56.20
2019-05-19T10:50:14.063Z,55.60
2019-05-19T10:52:43.661Z,55.70
2019-05-19T10:55:13.387Z,53.60
2019-05-19T10:57:42.984Z,53.30
2019-05-19T11:00:12.804Z,52.90
2019-05-19T11:02:42.159Z,51.70
2019-05-19T11:05:11.925Z,50.10
2019-05-19T11:07:41.595Z,49.80
2019-05-19T11:10:11.406Z,49.30
2019-05-19T11:12:41.719Z,46.20
2019-05-19T11:15:11.639Z,44.60
2019-05-19T11:17:41.016Z,45.50
2019-05-19T11:20:10.484Z,45.50
2019-05-19T11:22:40.199Z,46.00
2019-05-19T11:25:12.128Z,43.70
2019-05-19T11:27:51.169Z,43.30
2019-05-19T11:30:20.917Z,44.30
2019-05-19T11:32:50.785Z,43.80
2019-05-19T11:35:20.797Z,43.90
2019-05-19T11:37:51.692Z,44.10
2019-05-19T11:40:30.528Z,43.00
2019-05-19T11:42:59.873Z,40.90
2019-05-19T11:45:29.383Z,41.00
2019-05-19T11:47:59.318Z,40.00
2019-05-19T11:50:29.021Z,40.50
2019-05-19T11:52:58.347Z,38.00
2019-05-19T11:55:28.074Z,34.90
2019-05-19T11:57:58.613Z,32.50
2019-05-19T12:00:33.938Z,32.70
2019-05-19T12:03:05.095Z,32.90
2019-05-19T12:05:34.674Z,34.10
2019-05-19T12:08:06.390Z,33.80
2019-05-19T12:10:35.999Z,34.50
2019-05-19T12:13:05.667Z,34.60
2019-05-19T12:15:35.141Z,33.40
2019-05-19T12:18:11.363Z,33.40
2019-05-19T12:20:43.453Z,30.50
2019-05-19T12:23:20.652Z,29.60
2019-05-19T12:25:50.559Z,29.90
2019-05-19T12:28:20.011Z,28.50
2019-05-19T12:30:59.183Z,26.60
2019-05-19T12:33:52.462Z,26.00
2019-05-19T12:36:35.703Z,26.60
2019-05-19T12:39:08.088Z,29.20
2019-05-19T12:50:47.714Z,31.70
2019-05-19T12:53:17.125Z,32.90
2019-05-19T12:55:48.266Z,32.50
2019-05-19T12:58:17.950Z,30.90
2019-05-19T13:00:47.627Z,30.40
2019-05-19T13:03:19.397Z,27.30
2019-05-19T13:05:49.106Z,25.90
2019-05-19T13:08:44.211Z,26.00
2019-05-19T13:11:17.548Z,25.20
2019-05-19T13:13:47.061Z,24.90
2019-05-19T13:16:17.943Z,23.30
2019-05-19T13:18:49.201Z,21.90
2019-05-19T13:21:18.832Z,22.40
2019-05-19T13:23:48.551Z,20.00
2019-05-19T13:26:18.757Z,20.20
2019-05-19T13:28:48.486Z,19.90
2019-05-19T13:31:17.868Z,20.80
2019-05-19T13:33:47.180Z,19.80
2019-05-19T13:36:16.819Z,20.30
2019-05-19T13:38:46.143Z,21.20
2019-05-19T13:41:15.736Z,21.30
2019-05-19T13:43:45.152Z,21.70
2019-05-19T13:46:14.498Z,23.30
2019-05-19T13:48:44.232Z,24.00
2019-05-19T13:51:13.536Z,22.50
2019-05-19T13:53:43.258Z,21.80
2019-05-19T13:56:12.956Z,22.60
2019-05-19T13:58:42.360Z,22.40
2019-05-19T14:01:26.257Z,21.80
2019-05-19T14:03:43.146Z,22.30
2019-05-19T14:06:12.471Z,21.60
2019-05-19T14:08:42.075Z,22.20
2019-05-19T14:11:11.664Z,22.60
2019-05-19T14:13:41.299Z,26.00
2019-05-19T14:16:10.912Z,27.90
2019-05-19T14:18:40.504Z,29.60
2019-05-19T14:21:09.865Z,31.80
2019-05-19T14:23:39.260Z,30.90
2019-05-19T14:26:10.048Z,27.60
2019-05-19T14:28:39.647Z,26.10
2019-05-19T14:31:09.329Z,24.30
2019-05-19T14:33:38.645Z,24.10
2019-05-19T14:36:07.992Z,25.10
2019-05-19T14:38:39.019Z,26.50
2019-05-19T14:41:08.672Z,27.90
2019-05-19T14:43:38.179Z,29.50
2019-05-19T14:46:07.511Z,30.50
2019-05-19T14:48:36.822Z,32.80
2019-05-19T14:51:06.412Z,34.50
2019-05-19T14:53:36.078Z,35.20
2019-05-19T14:56:05.674Z,35.00
2019-05-19T14:58:35.243Z,35.50
2019-05-19T15:01:05.115Z,34.90
2019-05-19T15:03:34.694Z,35.50
2019-05-19T15:06:04.151Z,33.50
2019-05-19T15:08:33.531Z,34.30
2019-05-19T15:11:03.111Z,35.10
2019-05-19T15:13:32.793Z,37.10
2019-05-19T15:16:02.534Z,38.40
2019-05-19T15:18:32.836Z,37.60
2019-05-19T15:21:02.454Z,34.50
2019-05-19T15:23:32.110Z,33.00
2019-05-19T15:26:01.832Z,36.00
2019-05-19T15:28:31.185Z,39.00
2019-05-19T15:31:00.844Z,41.30
2019-05-19T15:33:37.665Z,42.70
2019-05-19T15:36:01.503Z,44.10
2019-05-19T15:38:31.189Z,45.50
2019-05-19T15:41:00.622Z,46.40
2019-05-19T15:43:30.261Z,47.60
2019-05-19T15:45:59.915Z,48.20
2019-05-19T15:48:29.518Z,48.40
2019-05-19T15:50:59.145Z,48.50
2019-05-19T15:53:28.471Z,48.90
2019-05-19T15:55:57.809Z,49.10
2019-05-19T15:58:27.127Z,50.10
2019-05-19T16:00:56.805Z,50.50
2019-05-19T16:03:26.462Z,51.70
2019-05-19T16:05:56.076Z,53.80
2019-05-19T16:08:25.563Z,54.50
2019-05-19T16:10:55.200Z,55.70
2019-05-19T16:13:24.796Z,57.20
2019-05-19T16:15:54.433Z,58.20
2019-05-19T16:18:24.058Z,59.10
2019-05-19T16:20:53.371Z,59.40
2019-05-19T16:23:23.784Z,59.30
2019-05-19T16:25:53.083Z,59.90
2019-05-19T16:28:30.229Z,60.10
2019-05-19T16:30:53.731Z,60.40
2019-05-19T16:33:23.300Z,60.70
2019-05-19T16:35:52.706Z,61.60
2019-05-19T16:38:22.148Z,62.90
2019-05-19T16:40:51.549Z,62.90
2019-05-19T16:43:21.289Z,63.20
2019-05-19T16:45:50.868Z,63.70
2019-05-19T16:48:23.281Z,63.90
2019-05-19T16:50:51.842Z,64.30
2019-05-19T16:53:21.261Z,65.50
2019-05-19T16:55:50.939Z,67.70
2019-05-19T16:58:21.804Z,68.00
2019-05-19T17:00:52.876Z,68.90
2019-05-19T17:03:22.564Z,71.00
2019-05-19T17:05:52.195Z,71.60
2019-05-19T17:08:23.255Z,72.50
2019-05-19T17:10:52.594Z,73.50
2019-05-19T17:13:22.328Z,74.00
2019-05-19T17:15:52.034Z,74.30
2019-05-19T17:18:21.679Z,74.60
2019-05-19T17:20:51.362Z,75.10
2019-05-19T17:23:20.713Z,74.80
2019-05-19T17:25:50.046Z,74.70
2019-05-19T17:28:19.491Z,74.30
2019-05-19T17:30:49.153Z,74.60
2019-05-19T17:33:18.738Z,74.70
2019-05-19T17:35:48.332Z,75.00
2019-05-19T17:38:17.734Z,75.30
2019-05-19T17:40:47.146Z,75.70
2019-05-19T17:43:16.790Z,75.40
2019-05-19T17:45:46.914Z,74.80
2019-05-19T17:48:26.175Z,75.30
2019-05-19T17:50:48.825Z,74.90
2019-05-19T17:53:18.281Z,74.70
2019-05-19T17:55:49.887Z,75.00
2019-05-19T17:58:19.740Z,75.00
2019-05-19T18:00:51.015Z,75.60
2019-05-19T18:03:20.538Z,75.90
2019-05-19T18:05:50.213Z,76.20
2019-05-19T18:08:19.528Z,76.40
2019-05-19T18:10:49.180Z,76.80
2019-05-19T18:13:18.828Z,77.10
2019-05-19T18:15:48.681Z,77.60
2019-05-19T18:18:18.989Z,78.20
2019-05-19T18:20:48.427Z,78.30
2019-05-19T18:23:18.181Z,78.90
2019-05-19T18:28:53.146Z,80.70
2019-05-19T18:31:27.245Z,81.40
2019-05-19T18:34:02.691Z,81.70
2019-05-19T18:36:34.500Z,82.20
2019-05-19T18:39:12.489Z,82.90
2019-05-19T18:41:47.464Z,83.40
2019-05-19T18:44:17.102Z,83.90
2019-05-19T18:46:47.116Z,84.50
2019-05-19T18:49:16.724Z,84.60
2019-05-19T18:51:46.215Z,85.20
2019-05-19T18:54:16.578Z,85.40
2019-05-19T18:56:46.255Z,85.90
2019-05-19T18:59:15.720Z,86.20
2019-05-19T19:01:45.335Z,85.70
2019-05-19T19:04:15.909Z,85.70
2019-05-19T19:06:45.429Z,85.20
2019-05-19T19:09:14.763Z,85.40
2019-05-19T19:11:47.783Z,85.60
2019-05-19T19:14:21.406Z,85.90
2019-05-19T19:16:52.196Z,86.30
2019-05-19T19:19:22.068Z,86.70
2019-05-19T19:21:51.772Z,87.20
2019-05-19T19:24:21.264Z,88.10
2019-05-19T19:26:50.849Z,87.90
2019-05-19T19:29:20.269Z,88.10
2019-05-19T19:31:49.677Z,88.40
2019-05-19T19:34:19.534Z,88.60
2019-05-19T19:36:51.294Z,88.90
2019-05-19T19:39:21.278Z,89.00
2019-05-19T19:41:50.672Z,89.20
2019-05-19T19:44:20.263Z,89.50
2019-05-19T19:46:53.535Z,89.70
2019-05-19T19:49:21.093Z,90.00
2019-05-19T19:51:50.426Z,90.10
2019-05-19T19:54:19.739Z,90.30
2019-05-19T19:56:49.354Z,90.50
2019-05-19T19:59:18.823Z,90.50
2019-05-19T20:01:48.412Z,90.60
2019-05-19T20:04:18.044Z,90.70
2019-05-19T20:10:03.149Z,90.90
2019-05-19T20:12:32.503Z,91.20
2019-05-19T20:15:02.260Z,91.20
2019-05-19T20:17:31.670Z,91.30
2019-05-19T20:20:01.352Z,91.50
2019-05-19T20:22:30.981Z,91.50
2019-05-19T20:25:00.666Z,91.70
2019-05-19T20:27:30.196Z,92.00
2019-05-19T20:29:59.590Z,92.10
2019-05-19T20:32:29.170Z,92.30
2019-05-19T20:34:58.495Z,92.50
2019-05-19T20:37:27.835Z,92.90
2019-05-19T20:39:57.507Z,93.00
2019-05-19T20:42:26.962Z,93.50
2019-05-19T20:44:56.632Z,93.50
2019-05-19T20:47:26.314Z,93.80
2019-05-19T20:49:55.725Z,94.20
2019-05-19T20:52:25.384Z,94.40
2019-05-19T20:54:54.782Z,94.40
2019-05-19T21:00:18.705Z,94.70
2019-05-19T21:02:48.055Z,95.00
2019-05-19T21:05:17.727Z,95.30
2019-05-19T21:07:47.323Z,95.30
2019-05-19T21:10:17.098Z,95.40
2019-05-19T21:12:46.425Z,95.70
2019-05-19T21:15:15.870Z,95.60
2019-05-19T21:17:45.201Z,95.80
2019-05-19T21:20:14.921Z,96.00
2019-05-19T21:22:44.499Z,96.00
2019-05-19T21:25:13.883Z,96.10
2019-05-19T21:27:43.307Z,96.20
2019-05-19T21:30:13.220Z,96.50
2019-05-19T21:32:42.624Z,96.30
2019-05-19T21:35:12.284Z,96.70
2019-05-19T21:37:41.634Z,97.00
2019-05-19T21:40:11.099Z,97.50
2019-05-19T21:42:40.449Z,97.60
2019-05-19T21:45:10.386Z,97.60
2019-05-19T21:47:40.069Z,97.90
2019-05-19T21:50:10.287Z,97.40
2019-05-19T21:52:39.617Z,98.00
2019-05-19T21:55:09.302Z,97.70
2019-05-19T21:57:38.988Z,97.70
2019-05-19T22:00:12.383Z,98.10
2019-05-19T22:02:43.396Z,98.40
2019-05-19T22:05:13.043Z,98.70
2019-05-19T22:07:47.307Z,98.80
2019-05-19T22:10:16.758Z,98.90
2019-05-19T22:12:46.356Z,99.00
2019-05-19T22:15:15.803Z,99.50
2019-05-19T22:17:45.142Z,99.50
2019-05-19T22:20:14.573Z,99.30
2019-05-19T22:22:44.139Z,99.20
2019-05-19T22:25:13.608Z,99.60
2019-05-19T22:27:43.185Z,99.50
2019-05-19T22:30:13.002Z,99.80
2019-05-19T22:32:42.855Z,99.90
2019-05-19T22:35:15.231Z,99.90
2019-05-19T22:37:44.553Z,99.90
2019-05-19T22:40:15.116Z,99.90
2019-05-19T22:42:44.431Z,99.90
2019-05-19T22:45:13.906Z,99.90
2019-05-19T22:47:44.308Z,99.90
2019-05-19T22:50:14.743Z,99.90
2019-05-19T22:52:44.340Z,99.90
2019-05-19T22:55:14.015Z,99.90
2019-05-19T22:57:43.596Z,99.90
2019-05-19T23:00:14.871Z,99.90
2019-05-19T23:02:46.049Z,99.90
2019-05-19T23:05:16.126Z,99.90
2019-05-19T23:07:45.438Z,99.90
2019-05-19T23:10:15.522Z,99.90
2019-05-19T23:12:45.143Z,99.90
2019-05-19T23:15:16.611Z,99.90
2019-05-19T23:17:46.008Z,99.90
2019-05-19T23:20:15.696Z,99.90
2019-05-19T23:22:45.107Z,99.90
2019-05-19T23:25:14.656Z,99.90
2019-05-19T23:27:43.995Z,99.90
2019-05-19T23:30:13.703Z,99.90
2019-05-19T23:32:43.366Z,99.90
2019-05-19T23:35:13.120Z,99.90
2019-05-19T23:37:42.712Z,99.90
2019-05-19T23:40:12.290Z,99.90
2019-05-19T23:42:41.612Z,99.90
2019-05-19T23:45:11.134Z,99.90
2019-05-19T23:47:40.752Z,99.90
2019-05-19T23:50:10.802Z,99.90
2019-05-19T23:52:40.220Z,99.90
2019-05-19T23:55:10.253Z,99.90
2019-05-19T23:57:39.971Z,99.90
